To NAV CANADA Home Page Login to a new session Search on AWWS site Feedback and Comments Disclaimer Vers la page française équivalente Tips FAQ What's new on the site To the Forecasts and Observations / NOTAM section To "File a Flight Plan" website Publications and other links Update of the User's profile FIC Telephone Numbers My Weather Data Folder Route Weather Data Regional Weather Data Local Weather Data To the Forecasts and Observations / NOTAM section
Request Generated 08/22/2017 at 03:20:35 UTC . Weather information available at that time is displayed.

METAR/TAF

LLOYDMINSTER/AB    (show WxCam)

METAR CYLL 220300Z 18002KT 15SM SCT065 BKN200 15/09 A3008 RMK SC4CI2
SLP198 DENSITY ALT 2600FT=
METAR CYLL 220200Z 28002KT 15SM SCT075 BKN250 18/09 A3007 RMK AC4CI2
SLP196 DENSITY ALT 2900FT=
METAR CYLL 220100Z 27005KT 15SM FEW065 SCT270 19/09 A3007 RMK CU2CI1
SLP197 DENSITY ALT 3000FT=

TAF CYLL 212340Z 2200/2212 26008KT P6SM SCT060
BECMG 2202/2204 18008KT
FM220800 18006KT P6SM BKN060
RMK NXT FCST BY 220600Z=
Your time UTC time
Weather data provided by Environment Canada and NAV CANADA